Time;durP1;ratioP1;P1;durP2;ratioP2;P2;SDS_P1;SDS_P2;PMS_P1;PMS_P2;Temp;Humidity;BMP_temperature;BMP_pressure;BME280_temperature;BME280_humidity;BME280_pressure;Samples;Min_cycle;Max_cycle;Signal;HPM_P1;HPM_P2
2022/07/03 04:04:08;;;;;;;2.20;1.83;;;15.90;99.90;;;;;;5942195;22;20461;-66
2022/07/03 04:06:33;;;;;;;2.63;2.43;;;15.90;99.90;;;;;;5035027;28;20463;-66
2022/07/03 04:08:59;;;;;;;1.83;1.73;;;16.00;99.90;;;;;;5035090;28;20181;-67
2022/07/03 04:11:25;;;;;;;1.70;1.60;;;16.00;99.90;;;;;;5035055;28;20239;-67
2022/07/03 04:13:50;;;;;;;2.33;2.13;;;16.10;99.90;;;;;;5034552;28;20852;-66
2022/07/03 04:16:16;;;;;;;2.10;2.00;;;16.10;99.90;;;;;;5034998;28;20182;-68
2022/07/03 04:18:41;;;;;;;2.40;2.20;;;16.30;99.90;;;;;;5028301;28;20613;-67
2022/07/03 04:21:08;;;;;;;2.43;2.33;;;16.60;99.90;;;;;;5031893;28;20193;-68
2022/07/03 04:23:33;;;;;;;2.60;2.40;;;17.00;99.90;;;;;;5034180;28;20196;-68
2022/07/03 04:26:03;;;;;;;2.10;2.00;;;17.40;99.90;;;;;;5034764;28;20801;-67
2022/07/03 04:28:29;;;;;;;2.13;2.03;;;17.70;99.90;;;;;;5034601;28;20188;-68
2022/07/03 04:30:55;;;;;;;2.37;2.10;;;17.90;99.90;;;;;;5030557;28;20423;-69
2022/07/03 04:33:20;;;;;;;1.67;1.57;;;18.00;99.90;;;;;;5012191;28;20209;-68
2022/07/03 04:35:46;;;;;;;1.90;1.80;;;18.10;99.90;;;;;;5014348;28;20172;-67
2022/07/03 04:38:12;;;;;;;2.63;2.43;;;18.10;99.90;;;;;;5014401;28;20218;-68
2022/07/03 04:40:37;;;;;;;2.10;2.00;;;18.10;99.90;;;;;;5015458;28;20250;-69
2022/07/03 04:43:03;;;;;;;2.00;1.83;;;18.10;99.90;;;;;;5013837;28;20302;-68
2022/07/03 04:45:29;;;;;;;2.37;1.83;;;18.30;99.90;;;;;;5014500;28;20197;-69
2022/07/03 04:47:54;;;;;;;1.40;1.40;;;18.30;99.90;;;;;;5014618;28;20179;-69
2022/07/03 04:50:20;;;;;;;2.07;1.97;;;18.50;99.90;;;;;;5014412;28;20175;-68
2022/07/03 04:52:46;;;;;;;2.00;1.83;;;18.60;99.90;;;;;;5016246;28;20243;-68
2022/07/03 04:55:12;;;;;;;2.17;1.97;;;18.80;99.90;;;;;;5034172;28;20225;-69
2022/07/03 04:57:38;;;;;;;1.87;1.77;;;18.90;99.90;;;;;;5034109;28;20181;-69
2022/07/03 05:00:06;;;;;;;2.10;2.00;;;19.00;99.90;;;;;;5033927;28;20461;-68
2022/07/03 05:02:31;;;;;;;1.80;1.70;;;19.00;99.90;;;;;;5033711;28;20772;-68
2022/07/03 05:04:57;;;;;;;1.90;1.80;;;19.00;99.90;;;;;;5033695;28;20430;-68
2022/07/03 05:07:22;;;;;;;2.57;2.37;;;19.10;99.90;;;;;;5032172;28;20637;-68
2022/07/03 05:09:48;;;;;;;2.70;2.50;;;19.20;99.90;;;;;;5013869;28;20183;-68
2022/07/03 05:12:13;;;;;;;2.47;2.30;;;19.20;99.90;;;;;;5013767;28;20198;-69
2022/07/03 05:14:39;;;;;;;2.20;2.10;;;19.30;99.90;;;;;;5013512;28;20199;-68
2022/07/03 05:17:04;;;;;;;2.40;2.20;;;19.40;99.90;;;;;;5014260;28;20516;-68
2022/07/03 05:19:30;;;;;;;2.03;1.93;;;19.50;99.90;;;;;;5012539;28;20210;-66
2022/07/03 05:21:56;;;;;;;2.27;2.17;;;19.70;99.90;;;;;;5013713;28;20266;-70
2022/07/03 05:24:23;;;;;;;1.87;1.77;;;20.00;99.90;;;;;;5032721;28;20201;-68
2022/07/03 05:26:49;;;;;;;1.80;1.70;;;20.00;99.90;;;;;;5033470;28;20166;-67
2022/07/03 05:29:15;;;;;;;1.90;1.80;;;20.20;99.90;;;;;;5033494;28;20405;-69
2022/07/03 05:31:40;;;;;;;1.80;1.70;;;20.30;99.90;;;;;;5033510;28;20208;-68
2022/07/03 05:34:06;;;;;;;1.90;1.80;;;20.40;99.90;;;;;;5032957;28;20198;-68
2022/07/03 05:36:31;;;;;;;1.93;1.83;;;20.40;99.90;;;;;;5033581;28;20633;-66
2022/07/03 05:41:43;;;;;;;2.30;2.03;;;20.50;99.90;;;;;;5033372;28;20197;-68
2022/07/03 05:44:08;;;;;;;1.40;1.40;;;20.60;99.90;;;;;;5033013;28;20483;-68
2022/07/03 05:46:34;;;;;;;2.27;2.10;;;20.60;99.90;;;;;;5033202;28;20264;-67
2022/07/03 05:49:00;;;;;;;1.90;1.80;;;20.70;99.90;;;;;;5033399;28;20292;-68
2022/07/03 05:51:25;;;;;;;2.03;1.90;;;20.80;99.90;;;;;;5033334;28;20174;-65
2022/07/03 05:53:51;;;;;;;2.00;1.80;;;20.90;99.90;;;;;;5032410;28;20209;-68
2022/07/03 05:56:17;;;;;;;2.03;1.77;;;21.00;99.90;;;;;;5033549;28;20170;-68
2022/07/03 05:58:42;;;;;;;1.90;1.80;;;21.20;99.90;;;;;;5033013;28;20542;-69
2022/07/03 06:01:08;;;;;;;1.90;1.80;;;21.20;99.90;;;;;;5033274;28;20533;-67
2022/07/03 06:03:33;;;;;;;2.00;1.80;;;21.40;99.90;;;;;;5032752;28;20197;-69
2022/07/03 06:06:00;;;;;;;1.83;1.73;;;21.40;99.90;;;;;;5033174;28;20193;-70
2022/07/03 06:08:25;;;;;;;1.53;1.43;;;21.50;99.90;;;;;;5014837;28;20190;-68
2022/07/03 06:10:51;;;;;;;3.90;1.97;;;21.60;99.90;;;;;;5013687;28;20402;-69
2022/07/03 06:13:16;;;;;;;1.70;1.60;;;21.60;99.90;;;;;;5014562;28;20272;-69
2022/07/03 06:15:42;;;;;;;2.30;2.00;;;21.60;99.90;;;;;;5017372;28;20184;-69
2022/07/03 06:18:08;;;;;;;1.90;1.70;;;21.70;99.90;;;;;;5017265;28;20186;-68
2022/07/03 06:20:33;;;;;;;1.87;1.77;;;21.80;99.90;;;;;;5017213;28;20198;-68
2022/07/03 06:22:59;;;;;;;1.70;1.60;;;21.90;99.90;;;;;;5032831;28;20189;-69
2022/07/03 06:25:24;;;;;;;2.57;1.73;;;21.90;99.90;;;;;;5037121;28;20233;-69
2022/07/03 06:27:50;;;;;;;1.97;1.83;;;22.00;99.90;;;;;;5037094;28;20170;-68
2022/07/03 06:30:16;;;;;;;1.77;1.67;;;22.00;99.90;;;;;;5035472;28;20190;-69
2022/07/03 06:32:41;;;;;;;1.50;1.40;;;22.10;99.90;;;;;;5036476;28;20180;-68
2022/07/03 06:35:07;;;;;;;1.73;1.63;;;22.20;99.90;;;;;;5036768;28;20221;-69
2022/07/03 06:37:33;;;;;;;6.10;2.13;;;22.30;99.90;;;;;;5021430;28;20237;-68
2022/07/03 06:39:58;;;;;;;1.70;1.60;;;22.30;99.90;;;;;;5016636;28;20462;-69
2022/07/03 06:42:24;;;;;;;1.87;1.77;;;22.30;99.90;;;;;;5016583;28;20186;-69
2022/07/03 06:44:49;;;;;;;1.77;1.67;;;22.40;99.90;;;;;;5016728;28;20202;-68
2022/07/03 06:47:15;;;;;;;2.17;1.97;;;22.40;99.90;;;;;;5016745;28;20174;-69
2022/07/03 06:49:43;;;;;;;2.17;2.00;;;22.50;99.90;;;;;;5016732;28;20539;-67
2022/07/03 06:52:09;;;;;;;1.60;1.50;;;22.60;99.90;;;;;;5032365;28;20192;-69
2022/07/03 06:54:37;;;;;;;2.07;1.97;;;22.70;99.90;;;;;;5036319;28;20587;-68
2022/07/03 06:57:04;;;;;;;1.80;1.70;;;22.70;99.90;;;;;;5036507;28;20502;-69
2022/07/03 06:59:29;;;;;;;1.23;1.23;;;22.90;99.90;;;;;;5035933;28;20845;-69
2022/07/03 07:01:55;;;;;;;1.80;1.70;;;23.20;99.90;;;;;;5036589;28;20421;-68
2022/07/03 07:04:21;;;;;;;2.10;2.00;;;;;;;;;;5035559;28;20240;-70
2022/07/03 07:06:47;;;;;;;1.67;1.57;;;;;;;;;;5028918;28;20179;-68
2022/07/03 07:09:13;;;;;;;1.77;1.67;;;;;;;;;;5016323;28;20472;-69
2022/07/03 07:11:38;;;;;;;1.97;1.57;;;23.40;99.90;;;;;;5016289;28;20424;-69
2022/07/03 07:14:04;;;;;;;1.70;1.60;;;;;;;;;;5015851;28;20440;-70
2022/07/03 07:16:30;;;;;;;1.70;1.60;;;;;;;;;;5016273;28;20516;-68
2022/07/03 07:18:56;;;;;;;2.00;1.87;;;;;;;;;;5016190;28;20518;-70
2022/07/03 07:21:22;;;;;;;4.07;2.17;;;;;;;;;;5021673;28;20504;-69
2022/07/03 07:23:48;;;;;;;1.90;1.80;;;;;;;;;;5034814;28;20792;-69
2022/07/03 07:26:14;;;;;;;1.97;1.87;;;;;;;;;;5035035;28;20467;-68
2022/07/03 07:28:40;;;;;;;2.57;2.37;;;;;;;;;;5035979;28;20736;-69
2022/07/03 07:31:06;;;;;;;1.90;1.80;;;24.20;99.90;;;;;;5035866;28;20409;-68
2022/07/03 07:33:31;;;;;;;1.10;1.10;;;26.20;95.00;;;;;;5035097;28;20413;-69
2022/07/03 07:35:57;;;;;;;1.60;1.50;;;26.60;95.20;;;;;;5031015;28;20186;-71
2022/07/03 07:38:25;;;;;;;1.90;1.80;;;27.40;93.90;;;;;;5015654;28;20199;-66
2022/07/03 07:40:51;;;;;;;2.53;1.87;;;28.50;92.30;;;;;;5016132;28;20171;-69
2022/07/03 07:43:17;;;;;;;1.80;1.70;;;29.70;90.50;;;;;;5013867;28;21068;-68
2022/07/03 07:45:43;;;;;;;1.60;1.50;;;30.90;87.10;;;;;;5015708;28;20171;-70
2022/07/03 07:48:08;;;;;;;1.80;1.70;;;32.30;83.10;;;;;;5015647;28;20190;-68
2022/07/03 07:50:34;;;;;;;1.90;1.80;;;33.50;79.40;;;;;;5018658;28;20839;-70
2022/07/03 07:53:00;;;;;;;2.00;1.90;;;34.50;74.60;;;;;;5034845;28;20178;-69
2022/07/03 07:55:25;;;;;;;1.40;1.40;;;35.60;71.40;;;;;;5035492;28;20416;-69
2022/07/03 07:57:51;;;;;;;2.00;1.90;;;36.10;69.20;;;;;;5035295;28;20629;-68
2022/07/03 08:00:18;;;;;;;2.00;1.90;;;36.90;67.50;;;;;;5035219;28;20264;-69
2022/07/03 08:05:36;;;;;;;1.67;1.60;;;38.20;61.60;;;;;;5029749;28;20489;-71
2022/07/03 08:08:10;;;;;;;2.17;2.07;;;38.90;59.30;;;;;;5015279;28;20434;-68
2022/07/03 08:10:37;;;;;;;1.50;1.50;;;39.40;56.70;;;;;;5015194;28;20428;-69
2022/07/03 08:13:03;;;;;;;1.70;1.70;;;39.70;57.70;;;;;;5014739;28;20488;-68
2022/07/03 08:15:28;;;;;;;2.00;1.90;;;39.80;56.00;;;;;;5024024;28;20516;-69
2022/07/03 08:17:54;;;;;;;1.90;1.80;;;39.80;55.60;;;;;;5034592;28;20636;-69
2022/07/03 08:20:20;;;;;;;2.20;2.10;;;39.90;54.90;;;;;;5027112;28;20231;-69
2022/07/03 08:22:45;;;;;;;1.50;1.50;;;40.10;54.60;;;;;;5014596;28;20166;-68
2022/07/03 08:25:11;;;;;;;1.67;1.67;;;40.50;54.20;;;;;;5014593;28;20241;-72
2022/07/03 08:27:36;;;;;;;1.80;1.70;;;40.80;53.50;;;;;;5014977;28;20186;-67
2022/07/03 08:30:03;;;;;;;1.70;1.70;;;41.00;53.10;;;;;;5014938;28;20175;-69
2022/07/03 08:32:28;;;;;;;1.93;1.83;;;41.10;52.40;;;;;;5014362;28;20553;-68
2022/07/03 08:34:54;;;;;;;1.83;1.73;;;40.90;50.00;;;;;;5020110;28;20453;-68
2022/07/03 08:37:20;;;;;;;1.60;1.60;;;40.80;50.50;;;;;;5034208;28;20185;-68
2022/07/03 08:39:45;;;;;;;2.10;1.67;;;40.80;50.80;;;;;;5030399;28;20199;-68
2022/07/03 08:42:12;;;;;;;2.03;1.93;;;40.80;50.90;;;;;;5014207;28;20209;-68
2022/07/03 08:44:39;;;;;;;1.97;1.87;;;40.80;50.00;;;;;;5014397;28;20210;-66
2022/07/03 08:47:08;;;;;;;2.00;1.90;;;40.90;50.10;;;;;;5013314;28;20508;-70
2022/07/03 08:49:34;;;;;;;3.60;3.40;;;41.50;48.90;;;;;;5014478;28;20896;-68
2022/07/03 08:52:01;;;;;;;1.60;1.60;;;41.60;48.40;;;;;;5014436;28;20402;-70
2022/07/03 08:54:26;;;;;;;1.50;1.50;;;42.00;47.30;;;;;;5016967;28;20939;-68
2022/07/03 08:56:52;;;;;;;1.70;1.60;;;42.40;46.10;;;;;;5034061;28;20461;-66
2022/07/03 08:59:21;;;;;;;1.70;1.60;;;42.70;45.00;;;;;;5033995;28;20235;-69
2022/07/03 09:01:47;;;;;;;2.83;1.60;;;42.70;44.00;;;;;;5033912;28;20216;-70
2022/07/03 09:04:13;;;;;;;1.50;1.50;;;42.70;43.00;;;;;;5033445;28;20452;-69
2022/07/03 09:06:41;;;;;;;1.60;1.60;;;42.80;43.50;;;;;;5034084;28;20470;-68
2022/07/03 09:09:08;;;;;;;1.83;1.77;;;42.60;42.90;;;;;;5031031;28;20448;-70
2022/07/03 09:11:36;;;;;;;1.43;1.43;;;42.50;43.50;;;;;;5014203;28;20425;-68
2022/07/03 09:14:06;;;;;;;1.53;1.53;;;42.40;42.00;;;;;;5013771;28;20861;-69
2022/07/03 09:16:35;;;;;;;2.00;1.90;;;42.50;43.10;;;;;;5014106;28;20466;-69
2022/07/03 09:19:02;;;;;;;2.00;1.90;;;42.50;42.20;;;;;;5014016;28;20791;-69
2022/07/03 09:21:38;;;;;;;1.60;1.60;;;42.40;41.10;;;;;;5014128;28;20830;-70
2022/07/03 09:24:06;;;;;;;1.60;1.60;;;42.30;40.70;;;;;;5017334;28;20444;-68
2022/07/03 09:26:31;;;;;;;1.77;1.57;;;42.30;40.20;;;;;;5033701;28;20423;-67
2022/07/03 09:28:57;;;;;;;1.90;1.80;;;42.10;41.70;;;;;;5033583;28;20895;-68
2022/07/03 09:31:27;;;;;;;3.27;1.60;;;41.90;41.60;;;;;;5033670;28;20647;-68
2022/07/03 09:33:57;;;;;;;1.50;1.50;;;41.50;42.00;;;;;;5033115;28;20684;-68
2022/07/03 09:36:39;;;;;;;1.90;1.90;;;41.60;41.60;;;;;;5033606;28;20458;-68
2022/07/03 09:39:13;;;;;;;2.00;1.90;;;41.80;40.50;;;;;;5026614;28;20548;-69
2022/07/03 09:41:54;;;;;;;3.43;3.23;;;42.10;41.00;;;;;;5013817;28;20425;-71
2022/07/03 09:44:45;;;;;;;2.20;2.10;;;42.40;39.80;;;;;;5013026;28;20425;-70
2022/07/03 09:47:24;;;;;;;2.10;2.10;;;42.40;40.10;;;;;;5013238;28;20418;-69
2022/07/03 09:49:57;;;;;;;1.90;1.90;;;42.60;39.90;;;;;;5013537;28;20170;-69
2022/07/03 09:52:39;;;;;;;2.22;2.13;;;42.70;39.80;;;;;;5013239;28;20441;-70
2022/07/03 09:55:11;;;;;;;2.35;2.22;;;42.50;40.90;;;;;;5014367;28;20282;-70
2022/07/03 09:57:49;;;;;;;2.72;2.63;;;42.50;41.10;;;;;;5013328;28;20181;-69
2022/07/03 10:00:21;;;;;;;2.13;2.13;;;42.80;39.80;;;;;;5013478;28;20209;-68
2022/07/03 10:03:07;;;;;;;2.40;2.30;;;43.20;40.70;;;;;;5013244;28;20650;-69
2022/07/03 10:05:33;;;;;;;2.33;2.33;;;43.10;39.00;;;;;;5013338;28;20182;-70
2022/07/03 10:08:05;;;;;;;2.00;2.00;;;42.60;40.60;;;;;;5014771;28;20166;-69
2022/07/03 10:10:33;;;;;;;2.22;2.22;;;42.70;40.10;;;;;;5033220;28;20548;-69
2022/07/03 10:12:59;;;;;;;2.08;2.08;;;42.70;38.50;;;;;;5032506;28;20212;-67
2022/07/03 10:15:27;;;;;;;2.05;2.05;;;42.50;38.70;;;;;;5033102;28;20518;-69
2022/07/03 10:17:56;;;;;;;2.10;2.10;;;42.40;39.60;;;;;;5031861;28;20717;-68
2022/07/03 10:20:30;;;;;;;2.40;2.30;;;42.30;40.40;;;;;;5033119;28;20559;-70
2022/07/03 10:22:56;;;;;;;2.00;2.00;;;42.50;40.20;;;;;;5029256;28;20171;-67
2022/07/03 10:25:23;;;;;;;2.78;2.67;;;42.70;40.00;;;;;;5013171;28;20170;-69
2022/07/03 10:27:49;;;;;;;2.20;2.10;;;42.90;39.00;;;;;;5013345;28;20171;-68
2022/07/03 10:30:18;;;;;;;1.80;1.80;;;42.50;39.00;;;;;;5013166;28;20755;-70
2022/07/03 10:32:51;;;;;;;2.20;2.10;;;42.50;38.60;;;;;;5012890;28;20492;-69
2022/07/03 10:35:28;;;;;;;1.60;1.60;;;41.80;39.80;;;;;;5012963;28;20547;-68
2022/07/03 10:38:04;;;;;;;1.57;1.57;;;41.40;39.00;;;;;;5017695;28;20417;-67
2022/07/03 10:46:24;;;;;;;1.40;1.40;;;41.20;39.90;;;;;;5032984;28;20396;-67
2022/07/03 10:49:05;;;;;;;1.57;1.47;;;41.10;39.80;;;;;;5032864;28;20431;-68
2022/07/03 10:51:50;;;;;;;1.50;1.40;;;41.10;38.80;;;;;;5021101;28;20418;-68
2022/07/03 10:54:18;;;;;;;1.60;1.60;;;41.10;39.30;;;;;;5012458;28;20484;-67
2022/07/03 10:57:02;;;;;;;1.63;1.53;;;40.80;39.80;;;;;;5012859;28;20693;-68
2022/07/03 11:02:22;;;;;;;1.50;1.50;;;40.30;41.20;;;;;;5016579;28;20727;-68
2022/07/03 11:04:56;;;;;;;1.50;1.50;;;40.30;40.20;;;;;;5016327;28;20434;-68
2022/07/03 11:07:26;;;;;;;1.80;1.70;;;40.10;42.90;;;;;;5016291;28;20433;-70
2022/07/03 11:10:13;;;;;;;1.70;1.63;;;39.60;40.80;;;;;;5016389;28;20386;-68
2022/07/03 11:13:04;;;;;;;1.47;1.47;;;39.50;39.80;;;;;;5015970;28;20390;-67
2022/07/03 11:15:30;;;;;;;2.07;1.97;;;39.30;42.10;;;;;;5016155;28;20402;-70
2022/07/03 11:18:06;;;;;;;1.90;1.80;;;38.80;41.90;;;;;;5016192;28;20894;-66
2022/07/03 11:20:36;;;;;;;1.30;1.30;;;38.00;42.20;;;;;;5023111;28;20420;-66
2022/07/03 11:23:27;;;;;;;1.50;1.50;;;37.00;41.90;;;;;;5034600;28;20410;-68
2022/07/03 11:25:52;;;;;;;1.10;1.10;;;36.00;44.50;;;;;;5035963;28;20412;-67
2022/07/03 11:28:36;;;;;;;3.10;1.43;;;35.10;44.40;;;;;;5035521;28;20859;-66
2022/07/03 11:31:11;;;;;;;1.50;1.40;;;34.30;45.90;;;;;;5035905;28;20174;-65
2022/07/03 11:33:47;;;;;;;1.80;1.70;;;33.60;46.10;;;;;;5035256;28;20395;-68
2022/07/03 11:36:16;;;;;;;1.50;1.40;;;32.80;49.40;;;;;;5020416;28;20487;-66
2022/07/03 11:38:48;;;;;;;1.47;1.40;;;32.30;47.70;;;;;;5015625;28;20436;-67
2022/07/03 11:41:16;;;;;;;1.13;1.13;;;32.00;48.70;;;;;;5015902;28;20460;-66
2022/07/03 11:43:56;;;;;;;1.70;1.60;;;31.40;49.90;;;;;;5015139;28;20437;-67
2022/07/03 11:46:24;;;;;;;1.73;1.20;;;31.00;50.50;;;;;;5016023;28;20373;-66
2022/07/03 11:48:50;;;;;;;1.40;1.10;;;30.80;52.40;;;;;;5015657;28;20381;-67
2022/07/03 11:51:16;;;;;;;1.40;1.30;;;30.70;51.60;;;;;;5033023;28;20842;-65
2022/07/03 11:53:42;;;;;;;1.50;1.40;;;30.60;51.90;;;;;;5034802;28;20392;-66
2022/07/03 11:56:09;;;;;;;1.13;1.13;;;30.60;53.30;;;;;;5035265;28;20383;-66
2022/07/03 11:58:50;;;;;;;1.30;1.10;;;30.70;54.70;;;;;;5034933;28;20445;-66
2022/07/03 12:01:27;;;;;;;1.50;1.40;;;30.70;53.10;;;;;;5035104;28;20410;-68
2022/07/03 12:04:10;;;;;;;1.30;1.20;;;30.60;54.30;;;;;;5034191;28;20399;-65
2022/07/03 12:06:38;;;;;;;1.40;1.30;;;30.70;53.20;;;;;;5013806;28;21003;-66
2022/07/03 12:09:22;;;;;;;1.60;1.50;;;30.60;54.30;;;;;;5034903;28;20462;-68
2022/07/03 12:12:04;;;;;;;2.50;1.60;;;30.60;53.10;;;;;;5034360;28;20433;-67
2022/07/03 12:14:41;;;;;;;1.10;1.10;;;30.40;54.50;;;;;;5034636;28;20759;-65
2022/07/03 12:17:09;;;;;;;1.47;1.47;;;30.30;54.60;;;;;;5034531;28;20404;-66
2022/07/03 12:19:37;;;;;;;9.30;1.40;;;30.30;52.60;;;;;;5034123;28;20431;-66
2022/07/03 12:22:03;;;;;;;1.10;1.10;;;30.00;53.70;;;;;;5034831;28;20405;-66
2022/07/03 12:24:29;;;;;;;1.30;1.30;;;30.00;54.40;;;;;;5032509;28;20425;-66
2022/07/03 12:26:54;;;;;;;1.40;1.40;;;29.90;54.60;;;;;;5014813;28;20427;-70
2022/07/03 12:29:20;;;;;;;1.47;1.47;;;29.90;54.10;;;;;;5014860;28;20201;-65
2022/07/03 12:31:48;;;;;;;1.60;1.40;;;29.90;55.40;;;;;;5014756;28;20657;-64
2022/07/03 12:34:16;;;;;;;1.20;1.20;;;29.90;54.70;;;;;;5014164;28;20784;-65
2022/07/03 12:36:58;;;;;;;1.03;1.03;;;30.00;55.00;;;;;;5014951;28;20406;-67
2022/07/03 12:39:24;;;;;;;1.30;1.23;;;30.00;55.50;;;;;;5015845;28;20450;-64
2022/07/03 12:41:50;;;;;;;1.37;1.27;;;30.10;54.40;;;;;;5034428;28;20442;-66
2022/07/03 12:44:20;;;;;;;1.00;1.00;;;30.10;56.20;;;;;;5033613;28;20720;-67
2022/07/03 12:46:46;;;;;;;1.40;1.30;;;30.20;55.60;;;;;;5014720;28;20872;-68
2022/07/03 12:49:13;;;;;;;1.33;1.33;;;30.20;55.00;;;;;;5014751;28;20479;-67
2022/07/03 12:51:48;;;;;;;1.33;1.23;;;30.30;53.50;;;;;;5014492;28;20935;-65
2022/07/03 12:54:23;;;;;;;1.23;1.23;;;30.30;53.80;;;;;;5014047;28;20451;-66
2022/07/03 13:00:19;;;;;;;1.50;1.40;;;30.30;54.60;;;;;;5014679;28;20965;-64
2022/07/03 13:02:49;;;;;;;1.63;1.53;;;30.30;56.50;;;;;;5013707;28;20427;-66
2022/07/03 13:05:19;;;;;;;1.30;1.30;;;30.30;54.40;;;;;;5013958;28;20615;-65
2022/07/03 13:07:55;;;;;;;1.23;1.20;;;30.30;54.10;;;;;;5014226;28;20448;-66
2022/07/03 13:10:23;;;;;;;1.20;1.20;;;30.20;55.20;;;;;;5014227;28;20384;-68
2022/07/03 13:12:57;;;;;;;1.83;1.60;;;30.30;55.80;;;;;;5013505;28;20423;-66
2022/07/03 13:15:29;;;;;;;1.10;1.10;;;30.30;55.00;;;;;;5026627;28;20410;-69
2022/07/03 13:17:55;;;;;;;1.20;1.20;;;30.20;54.40;;;;;;5033549;28;20458;-66
2022/07/03 13:20:26;;;;;;;1.37;1.27;;;30.20;54.40;;;;;;5033445;28;20918;-66
2022/07/03 13:23:12;;;;;;;1.63;1.53;;;30.10;53.60;;;;;;5032448;28;20185;-66
2022/07/03 13:25:44;;;;;;;1.23;1.23;;;29.90;54.40;;;;;;5033501;28;20399;-67
2022/07/03 13:28:11;;;;;;;1.40;1.30;;;29.90;54.80;;;;;;5033555;28;20409;-66
2022/07/03 13:30:39;;;;;;;1.40;1.40;;;29.90;54.60;;;;;;5016377;28;20392;-68
2022/07/03 13:33:05;;;;;;;1.63;1.53;;;29.90;54.40;;;;;;5013623;28;20409;-68
2022/07/03 13:35:32;;;;;;;1.33;1.23;;;29.80;55.90;;;;;;5013874;28;20414;-66
2022/07/03 13:37:58;;;;;;;1.70;1.60;;;29.70;56.30;;;;;;5013772;28;20401;-65
2022/07/03 13:40:23;;;;;;;1.47;1.37;;;29.80;55.80;;;;;;5013827;28;20825;-67
2022/07/03 13:42:49;;;;;;;1.47;1.37;;;30.00;56.20;;;;;;5013335;28;20461;-67
2022/07/03 13:45:15;;;;;;;1.53;1.43;;;30.20;56.40;;;;;;5029306;28;20272;-70
2022/07/03 13:47:41;;;;;;;1.30;1.30;;;30.30;54.10;;;;;;5033870;28;20170;-66
2022/07/03 13:50:06;;;;;;;1.10;1.10;;;30.40;54.10;;;;;;5033494;28;20213;-67
2022/07/03 13:52:35;;;;;;;1.10;1.10;;;30.50;53.30;;;;;;5033124;28;20210;-66
2022/07/03 13:55:00;;;;;;;1.73;1.63;;;30.60;52.10;;;;;;5033305;28;20194;-67
2022/07/03 13:57:26;;;;;;;1.07;1.07;;;30.50;53.70;;;;;;5033232;28;20455;-65
2022/07/03 13:59:51;;;;;;;1.40;1.30;;;30.70;52.90;;;;;;5018229;28;20206;-67
2022/07/03 14:02:17;;;;;;;1.37;1.27;;;30.60;51.80;;;;;;5013533;28;20166;-64
2022/07/03 14:04:43;;;;;;;1.73;1.20;;;30.60;52.50;;;;;;5013158;28;20195;-67
2022/07/03 14:07:08;;;;;;;1.47;1.37;;;30.60;51.60;;;;;;5013576;28;20547;-67
2022/07/03 14:09:34;;;;;;;1.63;1.53;;;30.60;51.70;;;;;;5013479;28;20178;-65
2022/07/03 14:12:00;;;;;;;1.83;1.73;;;30.60;53.30;;;;;;5013152;28;20174;-68
2022/07/03 14:14:26;;;;;;;2.00;1.90;;;30.60;55.40;;;;;;5025569;28;20194;-67
2022/07/03 14:16:51;;;;;;;2.73;2.53;;;30.50;54.90;;;;;;5032480;28;20190;-66
2022/07/03 14:19:17;;;;;;;2.10;2.00;;;30.40;56.10;;;;;;5032699;28;20469;-67
2022/07/03 14:21:43;;;;;;;2.40;2.20;;;30.30;56.50;;;;;;5033125;28;20163;-67
2022/07/03 14:24:09;;;;;;;1.33;1.30;;;30.20;57.00;;;;;;5032376;28;20530;-65
2022/07/03 14:34:48;;;;;;;1.30;1.30;;;29.90;56.60;;;;;;5015649;28;20486;-67
2022/07/03 14:37:18;;;;;;;1.10;1.10;;;29.80;56.80;;;;;;5017130;28;20917;-65
2022/07/03 14:39:50;;;;;;;1.70;1.60;;;29.70;56.70;;;;;;5016964;28;20226;-66
2022/07/03 14:42:17;;;;;;;1.33;1.33;;;29.70;56.60;;;;;;5016750;28;20376;-67
2022/07/03 14:44:43;;;;;;;1.27;1.27;;;29.60;56.80;;;;;;5017857;28;20492;-67
2022/07/03 14:47:08;;;;;;;2.20;2.00;;;29.60;57.50;;;;;;5016807;28;20400;-69
2022/07/03 14:49:34;;;;;;;1.53;1.50;;;29.60;57.50;;;;;;5017148;28;20493;-68
2022/07/03 14:52:04;;;;;;;1.27;1.27;;;29.60;57.30;;;;;;5016777;28;20179;-69
2022/07/03 14:54:36;;;;;;;1.40;1.40;;;29.60;57.20;;;;;;5016382;28;20528;-67
2022/07/03 14:57:06;;;;;;;2.00;1.90;;;29.60;57.60;;;;;;5031754;28;20435;-70
2022/07/03 14:59:54;;;;;;;1.87;1.77;;;29.50;58.00;;;;;;5036438;28;20445;-67
2022/07/03 15:02:22;;;;;;;2.27;1.53;;;29.50;57.70;;;;;;5035999;28;20375;-68
2022/07/03 15:05:03;;;;;;;2.07;1.97;;;29.40;57.60;;;;;;5035900;28;20450;-67
2022/07/03 15:07:32;;;;;;;1.80;1.70;;;29.30;58.20;;;;;;5036444;28;20474;-69
2022/07/03 15:10:18;;;;;;;1.57;1.53;;;29.30;58.70;;;;;;5034083;28;20472;-69
2022/07/03 15:12:52;;;;;;;2.10;2.00;;;29.30;58.90;;;;;;5015731;28;20430;-65
2022/07/03 15:15:18;;;;;;;1.60;1.50;;;29.30;58.70;;;;;;5016290;28;20391;-69
2022/07/03 15:17:49;;;;;;;1.50;1.50;;;29.30;58.50;;;;;;5016110;28;20413;-69
2022/07/03 15:20:16;;;;;;;3.80;3.60;;;29.20;58.90;;;;;;5016140;28;20439;-69
2022/07/03 15:22:44;;;;;;;1.80;1.70;;;29.30;59.70;;;;;;5016155;28;20421;-66
2022/07/03 15:25:12;;;;;;;1.97;1.87;;;29.20;60.30;;;;;;5020069;28;20452;-69
2022/07/03 15:27:38;;;;;;;1.77;1.63;;;29.30;59.50;;;;;;5034609;28;20456;-68
2022/07/03 15:30:07;;;;;;;1.97;1.70;;;29.20;59.50;;;;;;5035950;28;20413;-68
2022/07/03 15:32:33;;;;;;;1.63;1.60;;;29.20;58.80;;;;;;5035611;28;20417;-66
2022/07/03 15:34:59;;;;;;;1.90;1.70;;;29.20;58.90;;;;;;5035400;28;20447;-68
2022/07/03 15:37:43;;;;;;;1.70;1.60;;;29.20;58.70;;;;;;5035339;28;20323;-68
2022/07/03 15:40:11;;;;;;;1.60;1.50;;;29.10;58.60;;;;;;5029294;28;20206;-66
2022/07/03 15:43:25;;;;;;;2.20;2.03;;;29.10;59.60;;;;;;5015627;28;20387;-66
2022/07/03 15:46:42;;;;;;;1.50;1.50;;;29.10;59.90;;;;;;5013724;28;20883;-66
2022/07/03 15:49:22;;;;;;;1.50;1.50;;;29.00;59.10;;;;;;5015728;28;20413;-66
2022/07/03 15:52:02;;;;;;;2.97;1.83;;;29.10;60.50;;;;;;5015637;28;20474;-68
2022/07/03 15:54:59;;;;;;;1.93;1.83;;;29.10;59.70;;;;;;5016316;28;20422;-68
2022/07/03 15:57:36;;;;;;;1.77;1.70;;;29.10;60.40;;;;;;5034471;28;20393;-66
2022/07/03 16:00:11;;;;;;;1.43;1.33;;;29.00;59.90;;;;;;5035321;28;20426;-67
2022/07/03 16:03:03;;;;;;;2.13;2.03;;;29.00;59.00;;;;;;5034832;28;20378;-67
2022/07/03 16:05:35;;;;;;;1.90;1.80;;;29.00;58.50;;;;;;5034105;28;20415;-67
2022/07/03 16:08:08;;;;;;;1.77;1.67;;;29.00;59.80;;;;;;5035343;28;20383;-68
2022/07/03 16:10:35;;;;;;;1.60;1.50;;;28.90;60.00;;;;;;5021087;28;20403;-69
2022/07/03 16:13:01;;;;;;;1.60;1.50;;;28.90;59.60;;;;;;5014653;28;20418;-66
2022/07/03 16:15:31;;;;;;;1.60;1.50;;;28.90;59.00;;;;;;5015278;28;20432;-66
2022/07/03 16:17:57;;;;;;;4.43;1.70;;;28.90;59.30;;;;;;5015103;28;20439;-66
2022/07/03 16:20:28;;;;;;;1.60;1.50;;;28.90;59.50;;;;;;5013613;28;21010;-68
2022/07/03 16:23:00;;;;;;;3.23;1.57;;;28.90;59.80;;;;;;5014609;28;20419;-66
2022/07/03 16:25:26;;;;;;;2.00;1.90;;;28.90;58.80;;;;;;5029424;28;20477;-70
2022/07/03 16:27:52;;;;;;;1.37;1.30;;;28.80;59.10;;;;;;5034891;28;20505;-67
2022/07/03 16:30:17;;;;;;;3.73;2.63;;;28.80;59.40;;;;;;5026031;28;20185;-67
2022/07/03 16:32:43;;;;;;;1.23;1.23;;;28.80;60.10;;;;;;5014623;28;20180;-65
2022/07/03 16:35:55;;;;;;;1.40;1.23;;;28.70;58.70;;;;;;5014642;28;20211;-66
2022/07/03 16:38:25;;;;;;;1.47;1.37;;;28.60;58.90;;;;;;5014518;28;20417;-68
2022/07/03 16:40:52;;;;;;;1.73;1.63;;;28.50;59.20;;;;;;5014724;28;20378;-67
2022/07/03 16:43:21;;;;;;;2.20;1.27;;;28.50;58.60;;;;;;5014049;28;20510;-68
2022/07/03 16:45:50;;;;;;;1.33;1.33;;;28.40;58.70;;;;;;5015916;28;20817;-68
2022/07/03 16:48:21;;;;;;;1.47;1.37;;;28.40;59.60;;;;;;5014455;28;20390;-68
2022/07/03 16:51:00;;;;;;;1.40;1.30;;;28.30;59.10;;;;;;5014802;28;20462;-67
2022/07/03 16:53:26;;;;;;;1.50;1.40;;;28.30;59.10;;;;;;5013953;28;20434;-67
2022/07/03 16:55:51;;;;;;;1.07;1.07;;;28.20;59.30;;;;;;5014325;28;20416;-66
2022/07/03 16:58:17;;;;;;;1.30;1.20;;;28.20;59.80;;;;;;5014232;28;20880;-69
2022/07/03 17:00:44;;;;;;;1.43;1.40;;;28.20;59.70;;;;;;5014654;28;20196;-68
2022/07/03 17:03:11;;;;;;;1.30;1.20;;;28.10;60.50;;;;;;5013985;28;20172;-69
2022/07/03 17:05:38;;;;;;;1.63;1.53;;;28.00;60.10;;;;;;5014131;28;20423;-67
2022/07/03 17:08:04;;;;;;;1.27;1.17;;;28.00;59.90;;;;;;5014326;28;20390;-68
2022/07/03 17:10:30;;;;;;;1.70;1.60;;;27.90;59.70;;;;;;5012964;28;20410;-70
2022/07/03 17:12:58;;;;;;;1.27;1.27;;;27.90;59.50;;;;;;5013504;28;20418;-68
2022/07/03 17:15:26;;;;;;;1.20;1.20;;;27.90;60.00;;;;;;5029031;28;20435;-66
2022/07/03 17:17:59;;;;;;;1.77;1.67;;;27.80;60.70;;;;;;5034075;28;20943;-66
2022/07/03 17:20:27;;;;;;;1.50;1.40;;;27.80;60.20;;;;;;5033963;28;20485;-67
2022/07/03 17:23:09;;;;;;;2.10;1.47;;;27.70;60.30;;;;;;5032965;28;20867;-69
2022/07/03 17:25:40;;;;;;;1.47;1.37;;;27.70;60.80;;;;;;5031460;28;20412;-71
2022/07/03 17:28:06;;;;;;;1.33;1.33;;;27.60;61.70;;;;;;5032384;28;20419;-73
2022/07/03 17:30:39;;;;;;;3.50;1.60;;;27.50;61.70;;;;;;5018250;28;20431;-70